LFLL/LYS METAR and TAF weather

Enter ICAO airport designator
Station Type Date Time Source
LFLL METAR 2020/11/27 03:30 UTC NOAA

LFLL 270330Z 14010KT CAVOK 07/03 Q1019 NOSIG


Station Type Date Time Source
LFLL Decoded METAR 2020/11/27 03:30 UTC NOAA

Lyon / Satolas, France (LFLL) 45-44N 005-05E 240M
Nov 26, 2020 - 10:30 PM EST / 2020.11.27 0330 UTC
Wind: from the SE (140 degrees) at 12 MPH (10 KT):0
Visibility: greater than 7 mile(s):0
Temperature: 44 F (7 C)
Dew Point: 37 F (3 C)
Relative Humidity: 75%
Pressure (altimeter): 30.09 in. Hg (1019 hPa)
ob: LFLL 270330Z 14010KT CAVOK 07/03 Q1019 NOSIG
cycle: 3

Station Type Date Time Source
LFLL TAF 2020/11/26 18:21 UTC NOAA

TAF LFLL 261700Z 2618/2724 14006KT CAVOK
BECMG 2721/2723 VRB02KT PROB40
TEMPO 2723/2724 4000 BR

Example: see airport list